createdAt,value
2018-09-25T00:01:19.931Z,95584.16
2018-09-25T00:03:54.218Z,95570.05
2018-09-25T00:06:29.614Z,95575.20
2018-09-25T00:09:04.073Z,95567.34
2018-09-25T00:11:38.409Z,95575.63
2018-09-25T00:14:12.851Z,95586.67
2018-09-25T00:16:47.149Z,95586.75
2018-09-25T00:19:21.853Z,95590.33
2018-09-25T00:21:56.222Z,95590.65
2018-09-25T00:24:30.549Z,95581.68
2018-09-25T00:27:06.326Z,95581.11
2018-09-25T00:29:40.327Z,95574.63
2018-09-25T00:32:15.579Z,95570.25
2018-09-25T00:34:50.000Z,95575.45
2018-09-25T00:37:25.142Z,95585.38
2018-09-25T00:40:00.263Z,95581.84
2018-09-25T00:42:34.904Z,95586.57
2018-09-25T00:45:11.014Z,95594.02
2018-09-25T00:47:46.440Z,95587.02
2018-09-25T00:50:20.590Z,95585.39
2018-09-25T00:52:54.856Z,95586.67
2018-09-25T00:55:29.159Z,95587.05
2018-09-25T00:58:04.290Z,95572.35
2018-09-25T01:00:38.923Z,95576.66
2018-09-25T01:03:13.278Z,95578.02
2018-09-25T01:05:47.632Z,95573.66
2018-09-25T01:08:22.175Z,95591.11
2018-09-25T01:10:57.079Z,95567.50
2018-09-25T01:13:31.120Z,95586.91
2018-09-25T01:16:05.682Z,95581.57
2018-09-25T01:18:39.725Z,95577.31
2018-09-25T01:21:14.161Z,95581.34
2018-09-25T01:23:48.176Z,95583.34
2018-09-25T01:26:22.868Z,95575.92
2018-09-25T01:28:58.534Z,95571.92
2018-09-25T01:31:32.748Z,95577.36
2018-09-25T01:34:06.965Z,95586.96
2018-09-25T01:36:42.163Z,95592.64
2018-09-25T01:39:16.582Z,95595.09
2018-09-25T01:41:50.903Z,95590.09
2018-09-25T01:44:25.011Z,95582.17
2018-09-25T01:46:59.923Z,95585.89
2018-09-25T01:49:34.153Z,95585.11
2018-09-25T01:52:08.649Z,95590.25
2018-09-25T01:54:43.298Z,95592.52
2018-09-25T01:57:17.772Z,95593.33
2018-09-25T01:59:51.751Z,95600.27
2018-09-25T02:02:25.877Z,95597.53
2018-09-25T02:05:00.063Z,95609.00
2018-09-25T02:07:34.047Z,95616.44
2018-09-25T02:10:08.397Z,95620.31
2018-09-25T02:12:43.210Z,95627.78
2018-09-25T02:15:17.753Z,95635.19
2018-09-25T02:17:52.167Z,95644.09
2018-09-25T02:20:26.452Z,95654.12
2018-09-25T02:23:00.635Z,95652.66
2018-09-25T02:25:35.017Z,95647.02
2018-09-25T02:28:09.302Z,95640.86
2018-09-25T02:30:43.899Z,95652.98
2018-09-25T02:33:18.156Z,95651.38
2018-09-25T02:35:52.568Z,95652.19
2018-09-25T02:38:27.152Z,95652.98
2018-09-25T02:41:01.639Z,95666.22
2018-09-25T02:43:36.770Z,95666.70
2018-09-25T02:46:10.852Z,95654.73
2018-09-25T02:48:45.009Z,95663.14
2018-09-25T02:51:19.125Z,95668.95
2018-09-25T02:53:53.629Z,95661.05
2018-09-25T02:56:27.918Z,95655.67
2018-09-25T02:59:02.298Z,95673.75
2018-09-25T03:01:36.604Z,95668.76
2018-09-25T03:04:10.892Z,95671.69
2018-09-25T03:06:45.372Z,95677.50
2018-09-25T03:09:19.640Z,95680.05
2018-09-25T03:11:54.141Z,95676.18
2018-09-25T03:14:28.601Z,95672.34
2018-09-25T03:17:03.045Z,95669.09
2018-09-25T03:19:37.163Z,95667.49
2018-09-25T03:22:11.592Z,95659.27
2018-09-25T03:24:45.952Z,95654.74
2018-09-25T03:27:20.270Z,95657.66
2018-09-25T03:29:54.760Z,95659.09
2018-09-25T03:32:28.896Z,95659.58
2018-09-25T03:35:03.450Z,95673.31
2018-09-25T03:37:37.696Z,95660.07
2018-09-25T03:40:11.864Z,95662.82
2018-09-25T03:42:46.180Z,95664.28
2018-09-25T03:45:20.655Z,95668.62
2018-09-25T03:47:54.881Z,95679.92
2018-09-25T03:50:28.969Z,95673.97
2018-09-25T03:53:03.057Z,95680.73
2018-09-25T03:55:37.403Z,95677.17
2018-09-25T03:58:12.213Z,95671.08
2018-09-25T04:00:46.347Z,95670.88
2018-09-25T04:03:20.354Z,95680.58
2018-09-25T04:05:54.858Z,95677.80
2018-09-25T04:08:29.223Z,95678.11
2018-09-25T04:11:03.262Z,95680.70
2018-09-25T04:13:37.280Z,95682.36
2018-09-25T04:16:11.811Z,95683.33
2018-09-25T04:18:46.421Z,95690.89
2018-09-25T04:21:20.768Z,95684.58
2018-09-25T04:23:55.226Z,95676.16
2018-09-25T04:26:29.802Z,95679.20
2018-09-25T04:29:05.050Z,95680.33
2018-09-25T04:31:39.547Z,95695.31
2018-09-25T04:34:14.325Z,95698.89
2018-09-25T04:36:49.192Z,95682.41
2018-09-25T04:39:23.425Z,95695.97
2018-09-25T04:41:57.706Z,95692.59
2018-09-25T04:44:31.933Z,95688.06
2018-09-25T04:47:06.470Z,95689.38
2018-09-25T04:49:40.852Z,95699.21
2018-09-25T04:52:15.616Z,95693.23
2018-09-25T04:54:50.164Z,95697.63
2018-09-25T04:57:24.648Z,95697.78
2018-09-25T04:59:59.039Z,95697.78
2018-09-25T05:02:33.649Z,95705.57
2018-09-25T05:05:09.556Z,95712.52
2018-09-25T05:07:43.770Z,95716.20
2018-09-25T05:10:17.962Z,95712.84
2018-09-25T05:12:53.428Z,95720.92
2018-09-25T05:15:27.871Z,95711.70
2018-09-25T05:18:02.341Z,95714.59
2018-09-25T05:20:37.087Z,95726.73
2018-09-25T05:23:11.624Z,95726.24
2018-09-25T05:25:46.269Z,95719.78
2018-09-25T05:28:20.956Z,95723.03
2018-09-25T05:30:55.784Z,95730.16
2018-09-25T05:33:31.226Z,95732.74
2018-09-25T05:36:05.424Z,95735.66
2018-09-25T05:38:39.544Z,95732.24
2018-09-25T05:41:13.923Z,95734.80
2018-09-25T05:43:49.231Z,95736.91
2018-09-25T05:46:24.064Z,95738.05
2018-09-25T05:48:58.583Z,95740.66
2018-09-25T05:51:34.098Z,95753.09
2018-09-25T05:54:08.465Z,95754.20
2018-09-25T05:56:42.790Z,95760.19
2018-09-25T05:59:22.951Z,95769.42
2018-09-25T06:01:59.646Z,95764.42
2018-09-25T06:04:34.216Z,95769.25
2018-09-25T06:07:08.722Z,95770.23
2018-09-25T06:09:44.040Z,95777.81
2018-09-25T06:12:18.341Z,95777.34
2018-09-25T06:14:52.515Z,95774.12
2018-09-25T06:17:27.281Z,95779.63
2018-09-25T06:20:01.751Z,95781.90
2018-09-25T06:22:37.308Z,95788.66
2018-09-25T06:25:13.513Z,95789.17
2018-09-25T06:27:47.759Z,95794.16
2018-09-25T06:30:22.946Z,95801.45
2018-09-25T06:32:57.206Z,95797.94
2018-09-25T06:35:31.637Z,95804.09
2018-09-25T06:38:07.271Z,95810.84
2018-09-25T06:40:41.736Z,95815.87
2018-09-25T06:43:16.176Z,95817.84
2018-09-25T06:45:52.047Z,95823.96
2018-09-25T06:48:26.407Z,95818.14
2018-09-25T06:51:00.913Z,95821.22
2018-09-25T06:53:35.421Z,95822.34
2018-09-25T06:56:09.972Z,95821.72
2018-09-25T06:58:44.317Z,95820.91
2018-09-25T07:01:18.922Z,95833.67
2018-09-25T07:03:53.452Z,95838.20
2018-09-25T07:06:27.976Z,95836.10
2018-09-25T07:09:02.576Z,95842.91
2018-09-25T07:11:36.908Z,95840.63
2018-09-25T07:14:11.233Z,95852.91
2018-09-25T07:16:46.538Z,95854.98
2018-09-25T07:19:21.577Z,95858.82
2018-09-25T07:21:55.978Z,95857.48
2018-09-25T07:24:31.160Z,95863.31
2018-09-25T07:27:05.595Z,95870.64
2018-09-25T07:29:40.076Z,95877.61
2018-09-25T07:32:14.642Z,95884.25
2018-09-25T07:34:48.957Z,95885.21
2018-09-25T07:37:24.675Z,95880.85
2018-09-25T07:39:58.772Z,95886.55
2018-09-25T07:42:33.210Z,95878.66
2018-09-25T07:45:07.554Z,95884.97
2018-09-25T07:47:42.477Z,95887.42
2018-09-25T07:50:16.831Z,95887.12
2018-09-25T07:52:51.295Z,95892.63
2018-09-25T07:55:25.890Z,95890.55
2018-09-25T07:58:00.363Z,95889.11
2018-09-25T08:00:34.940Z,95888.47
2018-09-25T08:03:09.355Z,95889.43
2018-09-25T08:05:43.861Z,95898.42
2018-09-25T08:08:18.180Z,95896.96
2018-09-25T08:10:52.578Z,95899.59
2018-09-25T08:13:26.839Z,95905.65
2018-09-25T08:16:01.682Z,95907.01
2018-09-25T08:18:36.037Z,95902.64
2018-09-25T08:21:10.517Z,95899.34
2018-09-25T08:23:44.890Z,95897.66
2018-09-25T08:26:19.340Z,95902.92
2018-09-25T08:28:53.812Z,95906.22
2018-09-25T08:31:28.348Z,95915.34
2018-09-25T08:34:03.103Z,95919.78
2018-09-25T08:36:37.812Z,95919.68
2018-09-25T08:39:14.878Z,95915.78
2018-09-25T08:41:49.407Z,95925.30
2018-09-25T08:44:23.901Z,95923.58
2018-09-25T08:46:58.695Z,95922.94
2018-09-25T08:49:33.353Z,95922.47
2018-09-25T08:52:07.681Z,95929.21
2018-09-25T08:54:42.684Z,95931.03
2018-09-25T08:57:17.547Z,95927.10
2018-09-25T08:59:52.194Z,95929.32
2018-09-25T09:02:27.207Z,95925.71
2018-09-25T09:05:01.875Z,95922.52
2018-09-25T09:07:37.005Z,95922.52
2018-09-25T09:10:11.705Z,95927.14
2018-09-25T09:12:46.774Z,95923.08
2018-09-25T09:15:22.407Z,95920.20
2018-09-25T09:17:57.907Z,95922.54
2018-09-25T09:20:32.929Z,95925.38
2018-09-25T09:23:07.342Z,95917.52
2018-09-25T09:25:42.684Z,95929.75
2018-09-25T09:28:17.575Z,95922.91
2018-09-25T09:30:52.266Z,95931.80
2018-09-25T09:33:27.420Z,95929.78
2018-09-25T09:36:02.022Z,95933.84
2018-09-25T09:38:36.597Z,95931.66
2018-09-25T09:41:11.470Z,95934.55
2018-09-25T09:43:46.085Z,95928.09
2018-09-25T09:46:21.066Z,95935.47
2018-09-25T09:48:55.614Z,95941.41
2018-09-25T09:51:31.343Z,95934.45
2018-09-25T09:54:06.955Z,95935.04
2018-09-25T09:56:42.199Z,95934.09
2018-09-25T09:59:17.121Z,95931.09
2018-09-25T10:01:55.044Z,95930.80
2018-09-25T10:04:32.308Z,95930.53
2018-09-25T10:07:06.740Z,95923.74
2018-09-25T10:09:41.125Z,95918.14
2018-09-25T10:12:16.311Z,95919.33
2018-09-25T10:14:52.215Z,95916.32
2018-09-25T10:17:27.215Z,95921.66
2018-09-25T10:20:03.468Z,95922.09
2018-09-25T10:22:44.965Z,95927.58
2018-09-25T10:25:19.590Z,95926.91
2018-09-25T10:27:54.191Z,95928.86
2018-09-25T10:30:28.518Z,95924.39
2018-09-25T10:33:03.119Z,95920.10
2018-09-25T10:35:38.884Z,95923.73
2018-09-25T10:38:14.219Z,95920.84
2018-09-25T10:40:48.973Z,95913.93
2018-09-25T10:43:24.821Z,95929.24
2018-09-25T10:45:59.526Z,95920.78
2018-09-25T10:48:33.994Z,95922.77
2018-09-25T10:51:08.643Z,95915.93
2018-09-25T10:53:43.801Z,95917.97
2018-09-25T10:56:19.191Z,95919.49
2018-09-25T10:58:54.141Z,95931.44
2018-09-25T11:01:28.399Z,95920.95
2018-09-25T11:04:02.493Z,95922.44
2018-09-25T11:06:36.540Z,95917.03
2018-09-25T11:09:13.882Z,95919.96
2018-09-25T11:11:48.531Z,95918.70
2018-09-25T11:14:22.730Z,95909.66
2018-09-25T11:16:56.624Z,95916.09
2018-09-25T11:19:30.692Z,95901.00
2018-09-25T11:22:04.819Z,95895.73
2018-09-25T11:24:38.879Z,95896.28
2018-09-25T11:27:12.968Z,95900.20
2018-09-25T11:29:47.144Z,95902.91
2018-09-25T11:32:21.031Z,95895.66
2018-09-25T11:35:02.275Z,95894.76
2018-09-25T11:37:36.278Z,95889.59
2018-09-25T11:40:10.390Z,95882.64
2018-09-25T11:42:44.518Z,95893.46
2018-09-25T11:45:18.737Z,95888.09
2018-09-25T11:47:52.718Z,95895.94
2018-09-25T11:50:26.721Z,95887.62
2018-09-25T11:53:01.286Z,95879.83
2018-09-25T11:55:35.291Z,95878.22
2018-09-25T11:58:09.342Z,95881.12
2018-09-25T12:00:43.448Z,95893.06
2018-09-25T12:03:17.848Z,95884.97
2018-09-25T12:05:51.952Z,95890.15
2018-09-25T12:08:26.120Z,95888.08
2018-09-25T12:11:00.225Z,95886.63
2018-09-25T12:13:35.091Z,95882.91
2018-09-25T12:16:09.207Z,95880.75
2018-09-25T12:18:43.406Z,95871.88
2018-09-25T12:21:17.766Z,95873.98
2018-09-25T12:23:51.823Z,95885.42
2018-09-25T12:26:25.959Z,95874.25
2018-09-25T12:29:00.113Z,95876.14
2018-09-25T12:31:34.312Z,95875.59
2018-09-25T12:34:08.423Z,95875.80
2018-09-25T12:36:42.566Z,95877.97
2018-09-25T12:39:16.786Z,95871.55
2018-09-25T12:41:50.887Z,95881.62
2018-09-25T12:44:25.055Z,95871.50
2018-09-25T12:46:59.228Z,95863.75
2018-09-25T12:49:35.645Z,95856.05
2018-09-25T12:52:09.713Z,95856.78
2018-09-25T12:54:45.018Z,95855.16
2018-09-25T12:57:19.209Z,95861.33
2018-09-25T12:59:53.365Z,95856.88
2018-09-25T13:02:27.655Z,95843.76
2018-09-25T13:05:01.873Z,95859.94
2018-09-25T13:07:36.258Z,95855.09
2018-09-25T13:10:10.803Z,95855.53
2018-09-25T13:12:45.202Z,95863.90
2018-09-25T13:15:19.428Z,95874.26
2018-09-25T13:17:53.875Z,95862.15
2018-09-25T13:20:28.012Z,95869.41
2018-09-25T13:23:02.175Z,95872.39
2018-09-25T13:25:36.187Z,95873.94
2018-09-25T13:28:10.236Z,95872.45
2018-09-25T13:30:44.421Z,95861.16
2018-09-25T13:33:18.628Z,95873.09
2018-09-25T13:35:52.766Z,95870.19
2018-09-25T13:38:26.894Z,95867.84
2018-09-25T13:41:00.931Z,95873.91
2018-09-25T13:43:35.158Z,95877.77
2018-09-25T13:46:09.120Z,95867.52
2018-09-25T13:48:43.960Z,95873.64
2018-09-25T13:51:18.679Z,95868.05
2018-09-25T13:53:52.928Z,95863.82
2018-09-25T13:56:27.169Z,95863.63
2018-09-25T13:59:04.669Z,95869.59
2018-09-25T14:01:38.874Z,95872.11
2018-09-25T14:04:13.037Z,95877.80
2018-09-25T14:06:47.146Z,95862.02
2018-09-25T14:09:21.216Z,95872.65
2018-09-25T14:11:55.554Z,95877.03
2018-09-25T14:14:29.699Z,95877.67
2018-09-25T14:17:03.908Z,95876.52
2018-09-25T14:19:38.302Z,95874.90
2018-09-25T14:22:12.923Z,95873.28
2018-09-25T14:24:47.168Z,95872.16
2018-09-25T14:27:21.616Z,95871.84
2018-09-25T14:29:55.692Z,95877.36
2018-09-25T14:32:29.900Z,95876.38
2018-09-25T14:35:04.007Z,95876.35
2018-09-25T14:37:38.003Z,95877.78
2018-09-25T14:40:11.988Z,95871.61
2018-09-25T14:42:46.068Z,95887.28
2018-09-25T14:45:20.163Z,95875.94
2018-09-25T14:47:54.297Z,95889.66
2018-09-25T14:50:28.505Z,95884.00
2018-09-25T14:53:02.601Z,95885.00
2018-09-25T14:55:36.851Z,95885.18
2018-09-25T14:58:11.152Z,95887.53
2018-09-25T15:00:45.430Z,95888.33
2018-09-25T15:03:19.820Z,95884.74
2018-09-25T15:05:54.243Z,95889.41
2018-09-25T15:08:28.523Z,95884.33
2018-09-25T15:11:02.779Z,95884.70
2018-09-25T15:13:36.967Z,95878.67
2018-09-25T15:16:11.110Z,95880.39
2018-09-25T15:18:45.192Z,95879.78
2018-09-25T15:21:21.645Z,95891.08
2018-09-25T15:23:55.745Z,95883.23
2018-09-25T15:26:29.990Z,95881.00
2018-09-25T15:29:04.045Z,95878.22
2018-09-25T15:31:38.205Z,95884.41
2018-09-25T15:34:12.313Z,95882.16
2018-09-25T15:36:46.520Z,95882.97
2018-09-25T15:39:20.776Z,95885.39
2018-09-25T15:41:54.976Z,95891.19
2018-09-25T15:44:29.121Z,95889.47
2018-09-25T15:47:03.126Z,95896.89
2018-09-25T15:49:37.277Z,95898.79
2018-09-25T15:52:11.937Z,95903.70
2018-09-25T15:54:46.198Z,95904.94
2018-09-25T15:57:20.309Z,95908.37
2018-09-25T15:59:54.475Z,95909.28
2018-09-25T16:02:28.497Z,95917.62
2018-09-25T16:05:02.521Z,95921.96
2018-09-25T16:07:36.595Z,95908.62
2018-09-25T16:10:10.856Z,95918.93
2018-09-25T16:12:44.966Z,95917.72
2018-09-25T16:15:19.922Z,95923.92
2018-09-25T16:17:54.004Z,95937.80
2018-09-25T16:20:29.079Z,95939.11
2018-09-25T16:23:03.180Z,95940.33
2018-09-25T16:25:37.373Z,95948.23
2018-09-25T16:28:11.895Z,95954.64
2018-09-25T16:30:46.243Z,95956.91
2018-09-25T16:33:20.450Z,95955.31
2018-09-25T16:35:55.798Z,95950.50
2018-09-25T16:38:30.215Z,95951.33
2018-09-25T16:41:04.383Z,95952.52
2018-09-25T16:43:39.121Z,95959.55
2018-09-25T16:46:13.359Z,95961.65
2018-09-25T16:48:47.593Z,95964.56
2018-09-25T16:51:21.749Z,95968.48
2018-09-25T16:53:56.025Z,95975.42
2018-09-25T16:56:30.300Z,95976.89
2018-09-25T16:59:04.441Z,95982.89
2018-09-25T17:01:38.560Z,95974.30
2018-09-25T17:04:12.647Z,95983.52
2018-09-25T17:06:47.728Z,95979.72
2018-09-25T17:09:21.777Z,95980.23
2018-09-25T17:11:58.022Z,95991.68
2018-09-25T17:14:32.416Z,95993.75
2018-09-25T17:17:06.785Z,95997.45
2018-09-25T17:19:40.900Z,95993.70
2018-09-25T17:22:15.482Z,95993.39
2018-09-25T17:24:50.195Z,95999.04
2018-09-25T17:27:24.419Z,96001.61
2018-09-25T17:29:59.152Z,95999.93
2018-09-25T17:32:33.544Z,96004.11
2018-09-25T17:35:07.948Z,95996.20
2018-09-25T17:37:43.009Z,96004.61
2018-09-25T17:40:17.593Z,96006.32
2018-09-25T17:42:52.295Z,96007.88
2018-09-25T17:45:26.793Z,96020.94
2018-09-25T17:48:01.557Z,96013.86
2018-09-25T17:50:35.787Z,96013.53
2018-09-25T17:53:11.228Z,96028.96
2018-09-25T17:55:45.608Z,96025.56
2018-09-25T17:58:20.031Z,96030.03
2018-09-25T18:00:54.056Z,96033.91
2018-09-25T18:03:28.554Z,96028.70
2018-09-25T18:06:02.864Z,96041.52
2018-09-25T18:08:37.120Z,96045.20
2018-09-25T18:11:11.481Z,96049.77
2018-09-25T18:13:46.431Z,96053.15
2018-09-25T18:16:20.829Z,96050.63
2018-09-25T18:18:55.718Z,96061.44
2018-09-25T18:21:30.197Z,96064.83
2018-09-25T18:24:05.314Z,96066.06
2018-09-25T18:26:40.543Z,96068.36
2018-09-25T18:29:15.712Z,96079.93
2018-09-25T18:31:50.877Z,96086.84
2018-09-25T18:34:25.470Z,96090.33
2018-09-25T18:37:03.064Z,96095.25
2018-09-25T18:39:37.451Z,96100.64
2018-09-25T18:42:12.616Z,96091.52
2018-09-25T18:44:48.629Z,96101.48
2018-09-25T18:47:26.049Z,96106.95
2018-09-25T18:50:01.722Z,96103.34
2018-09-25T18:52:36.009Z,96115.20
2018-09-25T18:55:10.490Z,96118.81
2018-09-25T18:57:46.264Z,96123.33
2018-09-25T19:00:20.518Z,96126.41
2018-09-25T19:02:54.958Z,96127.02
2018-09-25T19:05:29.289Z,96138.92
2018-09-25T19:08:03.757Z,96132.38
2018-09-25T19:10:37.990Z,96138.69
2018-09-25T19:13:12.297Z,96144.36
2018-09-25T19:15:47.948Z,96147.84
2018-09-25T19:18:23.533Z,96142.48
2018-09-25T19:20:58.240Z,96144.22
2018-09-25T19:23:34.605Z,96146.56
2018-09-25T19:26:09.198Z,96147.68
2018-09-25T19:28:44.555Z,96162.47
2018-09-25T19:31:19.990Z,96165.19
2018-09-25T19:33:54.905Z,96161.25
2018-09-25T19:36:29.621Z,96164.09
2018-09-25T19:39:03.888Z,96162.50
2018-09-25T19:41:38.558Z,96153.84
2018-09-25T19:44:12.848Z,96154.65
2018-09-25T19:46:47.022Z,96157.06
2018-09-25T19:49:21.216Z,96156.06
2018-09-25T19:51:56.128Z,96161.44
2018-09-25T19:54:30.329Z,96166.17
2018-09-25T19:57:05.292Z,96173.45
2018-09-25T19:59:39.714Z,96171.35
2018-09-25T20:02:13.725Z,96167.78
2018-09-25T20:04:48.027Z,96173.54
2018-09-25T20:07:22.623Z,96175.61
2018-09-25T20:09:58.226Z,96171.14
2018-09-25T20:12:32.689Z,96171.88
2018-09-25T20:15:06.740Z,96176.20
2018-09-25T20:17:40.930Z,96177.70
2018-09-25T20:20:15.071Z,96178.47
2018-09-25T20:22:49.568Z,96183.09
2018-09-25T20:25:23.687Z,96181.41
2018-09-25T20:27:58.100Z,96182.34
2018-09-25T20:30:32.250Z,96183.23
2018-09-25T20:33:06.228Z,96195.84
2018-09-25T20:35:40.321Z,96194.83
2018-09-25T20:38:14.334Z,96197.50
2018-09-25T20:40:48.379Z,96193.47
2018-09-25T20:43:22.634Z,96201.82
2018-09-25T20:45:56.685Z,96211.28
2018-09-25T20:48:31.696Z,96201.31
2018-09-25T20:51:05.682Z,96206.93
2018-09-25T20:53:39.866Z,96207.78
2018-09-25T20:56:14.671Z,96207.78
2018-09-25T20:58:48.935Z,96209.70
2018-09-25T21:01:23.037Z,96208.13
2018-09-25T21:03:57.120Z,96219.17
2018-09-25T21:06:31.395Z,96215.41
2018-09-25T21:09:05.559Z,96221.83
2018-09-25T21:11:39.610Z,96221.83
2018-09-25T21:14:13.860Z,96221.67
2018-09-25T21:16:49.010Z,96219.77
2018-09-25T21:19:23.138Z,96219.06
2018-09-25T21:21:57.162Z,96226.58
2018-09-25T21:24:31.158Z,96230.60
2018-09-25T21:27:05.235Z,96232.61
2018-09-25T21:29:39.290Z,96230.50
2018-09-25T21:32:13.405Z,96232.70
2018-09-25T21:34:47.533Z,96238.69
2018-09-25T21:37:21.610Z,96244.84
2018-09-25T21:39:55.953Z,96246.23
2018-09-25T21:42:29.986Z,96253.59
2018-09-25T21:45:04.039Z,96254.67
2018-09-25T21:47:38.029Z,96257.24
2018-09-25T21:50:12.235Z,96265.28
2018-09-25T21:52:46.342Z,96268.63
2018-09-25T21:55:20.488Z,96274.86
2018-09-25T21:57:54.538Z,96272.16
2018-09-25T22:00:28.481Z,96274.86
2018-09-25T22:03:02.672Z,96273.37
2018-09-25T22:05:36.826Z,96273.91
2018-09-25T22:08:10.905Z,96278.11
2018-09-25T22:10:45.081Z,96272.33
2018-09-25T22:13:19.297Z,96276.42
2018-09-25T22:15:53.499Z,96267.97
2018-09-25T22:18:27.610Z,96272.86
2018-09-25T22:21:01.622Z,96269.81
2018-09-25T22:23:35.667Z,96272.27
2018-09-25T22:26:09.736Z,96269.08
2018-09-25T22:28:43.778Z,96275.08
2018-09-25T22:31:17.982Z,96276.28
2018-09-25T22:33:52.801Z,96280.38
2018-09-25T22:36:28.753Z,96274.77
2018-09-25T22:39:02.865Z,96280.95
2018-09-25T22:41:37.416Z,96275.47
2018-09-25T22:44:11.507Z,96278.50
2018-09-25T22:46:45.486Z,96278.16
2018-09-25T22:49:20.202Z,96274.69
2018-09-25T22:51:54.456Z,96272.11
2018-09-25T22:54:28.976Z,96265.23
2018-09-25T22:57:03.499Z,96266.87
2018-09-25T22:59:38.324Z,96270.95
2018-09-25T23:02:12.723Z,96276.08
2018-09-25T23:04:47.084Z,96273.28
2018-09-25T23:07:21.370Z,96276.44
2018-09-25T23:09:55.753Z,96277.25
2018-09-25T23:12:29.977Z,96273.63
2018-09-25T23:15:04.468Z,96281.45
2018-09-25T23:17:38.766Z,96281.80
2018-09-25T23:20:13.008Z,96286.48
2018-09-25T23:22:47.245Z,96287.53
2018-09-25T23:25:21.627Z,96291.61
2018-09-25T23:27:56.126Z,96290.45
2018-09-25T23:30:30.209Z,96285.91
2018-09-25T23:33:04.527Z,96283.57
2018-09-25T23:35:38.473Z,96289.50
2018-09-25T23:38:12.692Z,96283.78
2018-09-25T23:40:48.649Z,96279.94
2018-09-25T23:43:33.679Z,96271.20
2018-09-25T23:46:13.173Z,96271.31
2018-09-25T23:48:47.015Z,96274.36
2018-09-25T23:53:23.820Z,96268.39
2018-09-25T23:56:25.612Z,96265.97
2018-09-25T23:59:03.965Z,96274.00
